罗盘
风向 的 风向 的 风向 到 风向 200° Norden-Norddeich Airport 16/34
风: 13 kt, 4 beaufort

10 kt

9 kt
改变
0 1.000 2.000 3.000 4.000 5.000
OVC 900 ft
METAR EDWE 010550Z AUTO 20013KT 180V240 9999 // OVC009/// 12/10 Q0997

METAR Norden-Norddeich Airport - EDWS/NOD

Norden-Norddeich Airport是Norddeich,德国中的小机场。 该机场有一条跑道: 16/34. 该领域的国际民航组织标志是EDWS 它的国际航空运输协会代码是NOD.

这份报告是针对2022年10月1日 07:50, 当地时间在Emden Airport进行的。

机场观察

风向为200°,速度为13 kt。 风向在180°和240°之间变化。

可见度为10 km 或者更多。

有乌云密布在900 ft的高度。 破损或更高的上限为900 ft。

温度和风寒是12 °C。 露点为10 °C,相对湿度为88%。 海平面上的气压为997 hPa (QNH)。

白天

今天,太阳从07:33升起,在19:08降落。 这适用于Norden-Norddeich Airport,世界夏令时可能有所不同。 当地时间与世界标准时间之间的时差为+2 小时。 夏令时目前正在进行中。

公司介绍

我们没有关于这个机场的公司信息。

体会

到Vliegles.nl去找飞行课程,跳伞和其他飞行体验。 浏览页面,了解Norden-Norddeich Airport附近所有可用的活动。 你也可以使用搜索功能来寻找你所在地附近的特定飞行课程、跳伞或其他飞行体验。

跑道

Id 标题 侧风 逆风 侧风 %
16/34 159°-339° 9 kt 10 kt 66 %

逆风成分最大的方向会被突出显示,并用于横风计算。 这并不一定意味着这个方向在使用。

乌云

900 ft OVC 乌云密布

温度 & 天气

温度 12 °C
露点 10 °C
相对湿度 88%
Kp-index 0 (0-9)

白天

日出
07:32
中午
13:20
日落
19:08 (6h 29m)

小工具

你想在你的网站上有一个关于Norden-Norddeich Airport的当前航空天气(METAR)的小部件吗?

</> 显示HTML代码

我们和第三方通过cookies跟踪您在我们网站上的上网行为。如果您继续,我们认为您同意我们的cookie政策。 了解更多